createdAt,value
2019-05-19T00:00:23.669Z,29.57
2019-05-19T00:02:53.829Z,29.70
2019-05-19T00:05:23.653Z,28.70
2019-05-19T00:07:53.412Z,28.70
2019-05-19T00:10:23.243Z,29.77
2019-05-19T00:12:52.802Z,28.90
2019-05-19T00:15:22.356Z,30.40
2019-05-19T00:17:51.821Z,29.87
2019-05-19T00:20:21.436Z,29.03
2019-05-19T00:22:51.005Z,29.77
2019-05-19T00:25:20.972Z,28.07
2019-05-19T00:27:50.439Z,28.87
2019-05-19T00:30:19.913Z,29.83
2019-05-19T00:32:49.484Z,27.60
2019-05-19T00:35:19.030Z,28.37
2019-05-19T00:37:48.522Z,27.50
2019-05-19T00:40:18.050Z,29.17
2019-05-19T00:42:48.206Z,27.77
2019-05-19T00:45:18.962Z,27.80
2019-05-19T00:47:48.626Z,28.60
2019-05-19T00:50:18.180Z,28.07
2019-05-19T00:52:47.669Z,29.70
2019-05-19T00:55:17.154Z,29.37
2019-05-19T00:57:47.083Z,27.77
2019-05-19T01:00:17.011Z,28.20
2019-05-19T01:02:46.655Z,27.80
2019-05-19T01:05:17.275Z,26.93
2019-05-19T01:07:47.450Z,28.93
2019-05-19T01:10:17.273Z,27.27
2019-05-19T01:12:47.134Z,28.67
2019-05-19T01:15:18.568Z,28.67
2019-05-19T01:17:48.520Z,28.20
2019-05-19T01:20:18.538Z,29.60
2019-05-19T01:22:48.877Z,28.97
2019-05-19T01:25:19.396Z,29.03
2019-05-19T01:27:49.688Z,27.93
2019-05-19T01:30:20.022Z,27.00
2019-05-19T01:32:50.178Z,27.90
2019-05-19T01:35:20.569Z,30.20
2019-05-19T01:37:50.533Z,38.63
2019-05-19T01:40:20.794Z,40.67
2019-05-19T01:42:51.026Z,38.97
2019-05-19T01:45:20.831Z,37.13
2019-05-19T01:47:50.478Z,37.87
2019-05-19T01:50:20.310Z,35.67
2019-05-19T01:52:50.355Z,35.90
2019-05-19T01:55:20.190Z,36.07
2019-05-19T01:57:49.874Z,37.13
2019-05-19T02:00:20.423Z,36.57
2019-05-19T02:02:50.130Z,35.53
2019-05-19T02:05:19.944Z,35.93
2019-05-19T02:07:49.608Z,36.00
2019-05-19T02:10:19.717Z,38.73
2019-05-19T02:12:49.257Z,37.03
2019-05-19T02:15:19.071Z,37.20
2019-05-19T02:17:48.914Z,37.17
2019-05-19T02:20:32.132Z,39.13
2019-05-19T02:22:50.469Z,36.70
2019-05-19T02:25:20.364Z,37.17
2019-05-19T02:27:50.298Z,39.90
2019-05-19T02:30:20.453Z,38.27
2019-05-19T02:32:50.187Z,40.07
2019-05-19T02:35:19.723Z,39.30
2019-05-19T02:37:49.551Z,39.53
2019-05-19T02:40:19.459Z,39.87
2019-05-19T02:42:50.990Z,40.40
2019-05-19T02:45:20.701Z,39.63
2019-05-19T02:47:50.603Z,39.27
2019-05-19T02:50:20.605Z,39.93
2019-05-19T02:52:51.114Z,39.97
2019-05-19T02:55:21.036Z,40.17
2019-05-19T02:57:51.229Z,38.87
2019-05-19T03:00:24.261Z,38.17
2019-05-19T03:02:53.796Z,38.33
2019-05-19T03:05:23.619Z,38.37
2019-05-19T03:07:53.111Z,37.77
2019-05-19T03:10:22.756Z,36.97
2019-05-19T03:12:52.798Z,38.50
2019-05-19T03:15:22.548Z,36.80
2019-05-19T03:17:52.679Z,38.27
2019-05-19T03:20:22.422Z,35.23
2019-05-19T03:22:51.992Z,36.43
2019-05-19T03:25:21.618Z,36.13
2019-05-19T03:27:51.253Z,36.73
2019-05-19T03:30:31.445Z,35.67
2019-05-19T03:33:02.681Z,35.20
2019-05-19T03:35:32.137Z,34.37
2019-05-19T03:38:01.646Z,35.50
2019-05-19T03:40:31.849Z,34.60
2019-05-19T03:43:01.651Z,33.90
2019-05-19T03:45:31.467Z,32.03
2019-05-19T03:48:02.031Z,32.57
2019-05-19T03:50:31.577Z,30.50
2019-05-19T03:53:01.452Z,29.23
2019-05-19T03:55:30.912Z,29.80
2019-05-19T03:58:00.781Z,30.40
2019-05-19T04:00:30.466Z,27.50
2019-05-19T04:03:00.093Z,28.00
2019-05-19T04:05:29.755Z,28.30
2019-05-19T04:07:59.308Z,27.77
2019-05-19T04:10:29.137Z,27.63
2019-05-19T04:12:58.610Z,27.30
2019-05-19T04:15:28.109Z,26.00
2019-05-19T04:17:57.947Z,25.87
2019-05-19T04:20:27.483Z,24.97
2019-05-19T04:22:56.949Z,25.60
2019-05-19T04:25:26.503Z,26.30
2019-05-19T04:27:56.028Z,24.47
2019-05-19T04:30:25.572Z,23.87
2019-05-19T04:32:55.222Z,26.07
2019-05-19T04:35:25.266Z,25.47
2019-05-19T04:37:54.901Z,25.13
2019-05-19T04:40:24.366Z,25.33
2019-05-19T04:42:53.936Z,23.03
2019-05-19T04:45:23.810Z,24.20
2019-05-19T04:47:53.444Z,24.70
2019-05-19T04:50:23.112Z,24.50
2019-05-19T04:52:52.753Z,24.97
2019-05-19T04:55:22.228Z,24.67
2019-05-19T04:57:51.690Z,23.80
2019-05-19T05:00:21.439Z,22.50
2019-05-19T05:02:51.547Z,23.10
2019-05-19T05:05:21.384Z,22.57
2019-05-19T05:07:51.067Z,22.97
2019-05-19T05:10:20.564Z,22.43
2019-05-19T05:12:50.528Z,22.57
2019-05-19T05:15:20.016Z,21.53
2019-05-19T05:17:49.653Z,21.67
2019-05-19T05:20:19.432Z,21.30
2019-05-19T05:22:48.854Z,21.67
2019-05-19T05:25:19.522Z,19.43
2019-05-19T05:27:49.225Z,18.93
2019-05-19T05:30:18.979Z,18.13
2019-05-19T05:32:48.826Z,16.43
2019-05-19T05:35:18.517Z,17.20
2019-05-19T05:37:48.151Z,15.33
2019-05-19T05:40:17.832Z,16.30
2019-05-19T05:42:47.407Z,16.17
2019-05-19T05:45:17.068Z,15.73
2019-05-19T05:47:46.529Z,15.60
2019-05-19T05:50:16.576Z,14.97
2019-05-19T05:52:46.417Z,15.83
2019-05-19T05:55:16.170Z,14.03
2019-05-19T05:57:45.713Z,14.38
2019-05-19T06:00:16.131Z,14.40
2019-05-19T06:02:45.898Z,13.45
2019-05-19T06:05:16.930Z,13.88
2019-05-19T06:07:46.575Z,11.88
2019-05-19T06:10:16.435Z,12.85
2019-05-19T06:12:45.982Z,13.18
2019-05-19T06:15:15.604Z,12.43
2019-05-19T06:17:45.339Z,12.20
2019-05-19T06:20:15.271Z,13.03
2019-05-19T06:22:55.785Z,12.80
2019-05-19T06:25:17.134Z,11.73
2019-05-19T06:27:46.669Z,12.03
2019-05-19T06:30:17.019Z,12.80
2019-05-19T06:32:48.473Z,13.20
2019-05-19T06:35:18.261Z,12.23
2019-05-19T06:37:47.896Z,12.78
2019-05-19T06:40:17.799Z,12.05
2019-05-19T06:42:47.476Z,12.18
2019-05-19T06:45:17.387Z,11.75
2019-05-19T06:47:47.318Z,12.60
2019-05-19T06:50:17.680Z,12.47
2019-05-19T06:52:47.312Z,12.13
2019-05-19T06:55:16.936Z,12.05
2019-05-19T06:57:47.092Z,10.78
2019-05-19T07:00:18.624Z,11.25
2019-05-19T07:02:48.365Z,10.13
2019-05-19T07:05:18.952Z,10.72
2019-05-19T07:07:48.483Z,10.38
2019-05-19T07:10:18.517Z,10.35
2019-05-19T07:12:47.968Z,10.00
2019-05-19T07:15:17.654Z,10.23
2019-05-19T07:17:47.270Z,9.43
2019-05-19T07:20:16.762Z,10.18
2019-05-19T07:22:46.805Z,10.13
2019-05-19T07:25:16.748Z,9.75
2019-05-19T07:27:46.817Z,9.50
2019-05-19T07:30:16.517Z,9.23
2019-05-19T07:32:46.233Z,8.95
2019-05-19T07:35:16.042Z,10.05
2019-05-19T07:37:45.620Z,9.90
2019-05-19T07:40:15.242Z,8.93
2019-05-19T07:42:44.963Z,9.60
2019-05-19T07:45:14.670Z,8.88
2019-05-19T07:47:44.312Z,9.30
2019-05-19T07:50:14.123Z,10.48
2019-05-19T07:52:47.195Z,9.70
2019-05-19T07:55:17.328Z,9.68
2019-05-19T07:57:46.809Z,9.93
2019-05-19T08:00:16.357Z,10.80
2019-05-19T08:02:46.014Z,10.53
2019-05-19T08:05:16.170Z,10.30
2019-05-19T08:07:46.120Z,9.95
2019-05-19T08:10:15.734Z,10.00
2019-05-19T08:12:45.407Z,10.43
2019-05-19T08:15:15.042Z,10.35
2019-05-19T08:17:44.714Z,10.88
2019-05-19T08:20:14.889Z,11.20
2019-05-19T08:22:44.831Z,9.95
2019-05-19T08:25:14.749Z,10.03
2019-05-19T08:27:44.389Z,10.18
2019-05-19T08:30:14.207Z,11.00
2019-05-19T08:32:43.864Z,10.18
2019-05-19T08:35:13.318Z,10.85
2019-05-19T08:37:43.372Z,10.13
2019-05-19T08:40:13.164Z,9.88
2019-05-19T08:42:42.651Z,10.23
2019-05-19T08:45:13.384Z,10.20
2019-05-19T08:47:43.107Z,10.15
2019-05-19T08:50:12.736Z,10.15
2019-05-19T08:52:42.720Z,9.75
2019-05-19T08:55:12.456Z,10.28
2019-05-19T08:57:42.001Z,10.15
2019-05-19T09:00:11.627Z,9.33
2019-05-19T09:02:41.601Z,10.18
2019-05-19T09:05:11.303Z,10.55
2019-05-19T09:07:40.780Z,9.70
2019-05-19T09:10:10.514Z,10.72
2019-05-19T09:12:40.505Z,10.15
2019-05-19T09:15:10.342Z,9.73
2019-05-19T09:17:40.034Z,10.15
2019-05-19T09:20:10.302Z,9.45
2019-05-19T09:22:39.840Z,9.03
2019-05-19T09:25:09.815Z,10.10
2019-05-19T09:27:39.868Z,10.05
2019-05-19T09:30:10.757Z,9.40
2019-05-19T09:32:41.078Z,10.30
2019-05-19T09:35:10.914Z,10.23
2019-05-19T09:37:41.380Z,10.05
2019-05-19T09:40:11.349Z,9.65
2019-05-19T09:42:41.427Z,9.73
2019-05-19T09:45:11.060Z,9.85
2019-05-19T09:47:40.874Z,9.53
2019-05-19T09:50:10.486Z,9.70
2019-05-19T09:52:40.289Z,9.60
2019-05-19T09:55:10.976Z,9.23
2019-05-19T09:57:40.540Z,8.93
2019-05-19T10:00:12.509Z,9.60
2019-05-19T10:02:42.199Z,9.25
2019-05-19T10:05:12.107Z,8.75
2019-05-19T10:07:41.596Z,9.25
2019-05-19T10:10:14.444Z,10.00
2019-05-19T10:12:43.908Z,8.90
2019-05-19T10:15:14.047Z,9.75
2019-05-19T10:17:43.571Z,9.33
2019-05-19T10:20:14.560Z,9.85
2019-05-19T10:22:45.420Z,10.05
2019-05-19T10:25:23.209Z,9.25
2019-05-19T10:27:46.364Z,9.70
2019-05-19T10:30:15.983Z,9.18
2019-05-19T10:32:45.900Z,9.43
2019-05-19T10:35:15.460Z,9.15
2019-05-19T10:37:45.234Z,8.28
2019-05-19T10:40:15.501Z,8.10
2019-05-19T10:42:45.252Z,8.15
2019-05-19T10:45:14.973Z,7.47
2019-05-19T10:47:44.453Z,7.53
2019-05-19T10:50:14.326Z,8.25
2019-05-19T10:52:44.213Z,7.70
2019-05-19T10:55:13.843Z,6.85
2019-05-19T10:57:43.479Z,7.62
2019-05-19T11:00:13.833Z,7.90
2019-05-19T11:02:43.682Z,7.50
2019-05-19T11:05:13.483Z,7.20
2019-05-19T11:07:42.938Z,7.35
2019-05-19T11:10:12.541Z,7.33
2019-05-19T11:12:41.982Z,7.37
2019-05-19T11:15:12.143Z,7.33
2019-05-19T11:17:41.846Z,7.50
2019-05-19T11:20:11.946Z,7.30
2019-05-19T11:22:41.578Z,7.53
2019-05-19T11:25:11.180Z,7.70
2019-05-19T11:27:40.619Z,7.55
2019-05-19T11:30:12.033Z,7.12
2019-05-19T11:32:41.713Z,7.30
2019-05-19T11:35:11.323Z,7.30
2019-05-19T11:37:41.444Z,7.37
2019-05-19T11:40:11.562Z,7.08
2019-05-19T11:42:41.361Z,6.95
2019-05-19T11:45:10.914Z,6.47
2019-05-19T11:47:40.374Z,7.42
2019-05-19T11:50:09.925Z,7.05
2019-05-19T11:52:39.542Z,6.83
2019-05-19T11:55:09.211Z,6.42
2019-05-19T11:57:38.770Z,6.45
2019-05-19T12:00:09.318Z,7.25
2019-05-19T12:02:39.003Z,7.62
2019-05-19T12:05:08.805Z,7.70
2019-05-19T12:07:38.874Z,7.20
2019-05-19T12:10:09.051Z,7.05
2019-05-19T12:12:38.601Z,6.37
2019-05-19T12:15:08.899Z,6.67
2019-05-19T12:17:38.878Z,7.12
2019-05-19T12:20:08.569Z,6.50
2019-05-19T12:22:38.138Z,6.47
2019-05-19T12:25:08.453Z,5.97
2019-05-19T12:27:38.187Z,6.22
2019-05-19T12:30:09.708Z,6.40
2019-05-19T12:32:39.417Z,6.72
2019-05-19T12:35:09.133Z,6.28
2019-05-19T12:37:39.075Z,6.20
2019-05-19T12:40:09.243Z,6.00
2019-05-19T12:42:38.762Z,6.30
2019-05-19T12:45:08.936Z,6.15
2019-05-19T12:47:38.372Z,6.28
2019-05-19T12:50:08.436Z,5.25
2019-05-19T12:52:37.895Z,5.80
2019-05-19T12:55:07.561Z,5.12
2019-05-19T12:57:37.576Z,5.08
2019-05-19T13:00:07.890Z,4.95
2019-05-19T13:02:38.316Z,4.90
2019-05-19T13:05:08.797Z,4.67
2019-05-19T13:07:38.920Z,4.67
2019-05-19T13:10:08.714Z,4.47
2019-05-19T13:12:38.172Z,4.53
2019-05-19T13:15:08.284Z,4.75
2019-05-19T13:17:37.782Z,5.10
2019-05-19T13:20:07.399Z,5.05
2019-05-19T13:22:36.931Z,4.72
2019-05-19T13:25:06.797Z,5.10
2019-05-19T13:27:36.293Z,5.30
2019-05-19T13:30:09.112Z,4.90
2019-05-19T13:32:38.772Z,4.92
2019-05-19T13:35:08.885Z,4.90
2019-05-19T13:37:39.174Z,4.70
2019-05-19T13:40:08.769Z,4.67
2019-05-19T13:42:38.392Z,4.75
2019-05-19T13:45:08.127Z,4.70
2019-05-19T13:47:37.987Z,4.60
2019-05-19T13:50:08.065Z,4.72
2019-05-19T13:52:37.701Z,4.70
2019-05-19T13:55:08.584Z,4.40
2019-05-19T13:57:38.153Z,5.00
2019-05-19T14:00:08.248Z,4.53
2019-05-19T14:02:38.105Z,4.58
2019-05-19T14:05:07.744Z,4.67
2019-05-19T14:07:37.241Z,4.33
2019-05-19T14:10:07.242Z,4.20
2019-05-19T14:12:36.713Z,4.72
2019-05-19T14:15:08.285Z,4.80
2019-05-19T14:17:38.041Z,4.62
2019-05-19T14:20:08.514Z,4.65
2019-05-19T14:22:38.241Z,4.22
2019-05-19T14:25:08.442Z,4.37
2019-05-19T14:27:38.464Z,4.72
2019-05-19T14:30:09.755Z,4.12
2019-05-19T14:32:39.208Z,4.28
2019-05-19T14:35:08.881Z,4.40
2019-05-19T14:37:38.590Z,4.35
2019-05-19T14:40:10.002Z,4.15
2019-05-19T14:42:56.519Z,4.25
2019-05-19T14:45:25.972Z,4.40
2019-05-19T14:47:55.502Z,5.58
2019-05-19T14:50:25.045Z,4.90
2019-05-19T14:52:55.178Z,5.00
2019-05-19T14:55:25.080Z,5.00
2019-05-19T14:57:54.680Z,4.58
2019-05-19T15:00:24.661Z,4.03
2019-05-19T15:02:54.118Z,4.35
2019-05-19T15:05:23.996Z,3.90
2019-05-19T15:07:53.572Z,3.80
2019-05-19T15:10:23.874Z,4.20
2019-05-19T15:12:53.768Z,4.10
2019-05-19T15:15:25.422Z,4.20
2019-05-19T15:17:54.888Z,4.15
2019-05-19T15:20:24.716Z,4.12
2019-05-19T15:22:54.280Z,4.40
2019-05-19T15:25:24.108Z,4.35
2019-05-19T15:28:00.242Z,4.03
2019-05-19T15:30:25.073Z,4.58
2019-05-19T15:32:54.595Z,4.25
2019-05-19T15:35:24.101Z,4.83
2019-05-19T15:37:53.661Z,4.22
2019-05-19T15:40:23.146Z,4.70
2019-05-19T15:42:52.692Z,4.60
2019-05-19T15:45:22.428Z,4.40
2019-05-19T15:47:51.998Z,4.03
2019-05-19T15:50:21.621Z,4.17
2019-05-19T15:52:51.106Z,4.60
2019-05-19T15:55:20.641Z,4.33
2019-05-19T15:57:50.205Z,4.33
2019-05-19T16:00:21.940Z,4.72
2019-05-19T16:02:51.885Z,4.10
2019-05-19T16:05:21.701Z,4.30
2019-05-19T16:07:51.203Z,4.37
2019-05-19T16:10:21.077Z,4.30
2019-05-19T16:12:51.021Z,3.90
2019-05-19T16:15:21.100Z,4.28
2019-05-19T16:17:50.732Z,4.30
2019-05-19T16:20:20.279Z,4.20
2019-05-19T16:22:49.816Z,4.33
2019-05-19T16:25:19.346Z,4.50
2019-05-19T16:27:49.255Z,4.35
2019-05-19T16:30:19.179Z,5.28
2019-05-19T16:32:48.797Z,4.55
2019-05-19T16:35:18.369Z,4.25
2019-05-19T16:37:48.112Z,4.22
2019-05-19T16:40:18.474Z,4.53
2019-05-19T16:42:47.915Z,4.42
2019-05-19T16:45:17.628Z,4.40
2019-05-19T16:47:47.558Z,4.87
2019-05-19T16:50:17.629Z,4.03
2019-05-19T16:52:47.646Z,4.25
2019-05-19T16:55:21.722Z,4.70
2019-05-19T16:57:51.265Z,4.72
2019-05-19T17:00:21.117Z,4.05
2019-05-19T17:02:50.636Z,4.22
2019-05-19T17:05:20.539Z,5.08
2019-05-19T17:07:50.460Z,5.05
2019-05-19T17:10:20.001Z,4.87
2019-05-19T17:12:49.577Z,5.65
2019-05-19T17:15:19.829Z,5.10
2019-05-19T17:17:49.331Z,5.17
2019-05-19T17:20:20.496Z,4.60
2019-05-19T17:22:50.134Z,5.50
2019-05-19T17:25:19.671Z,4.78
2019-05-19T17:27:49.460Z,5.45
2019-05-19T17:30:21.055Z,5.85
2019-05-19T17:32:50.491Z,5.17
2019-05-19T17:35:20.351Z,5.75
2019-05-19T17:37:50.084Z,5.45
2019-05-19T17:40:20.472Z,5.42
2019-05-19T17:42:49.915Z,5.80
2019-05-19T17:45:19.393Z,5.50
2019-05-19T17:47:48.917Z,5.90
2019-05-19T17:50:33.123Z,5.72
2019-05-19T17:53:03.529Z,6.85
2019-05-19T17:55:35.157Z,6.28
2019-05-19T17:58:04.948Z,6.42
2019-05-19T18:00:39.230Z,6.58
2019-05-19T18:03:09.369Z,6.42
2019-05-19T18:05:38.929Z,6.65
2019-05-19T18:08:08.514Z,6.67
2019-05-19T18:10:38.076Z,6.97
2019-05-19T18:13:07.502Z,6.80
2019-05-19T18:15:37.361Z,6.37
2019-05-19T18:18:06.816Z,6.28
2019-05-19T18:20:36.419Z,6.17
2019-05-19T18:23:05.954Z,5.92
2019-05-19T18:25:35.452Z,6.28
2019-05-19T18:28:05.263Z,6.25
2019-05-19T18:30:35.718Z,6.45
2019-05-19T18:33:05.180Z,6.20
2019-05-19T18:35:34.812Z,6.05
2019-05-19T18:38:04.519Z,6.50
2019-05-19T18:40:34.183Z,6.62
2019-05-19T18:43:04.454Z,6.10
2019-05-19T18:45:34.309Z,6.12
2019-05-19T18:48:03.810Z,6.25
2019-05-19T18:50:33.336Z,6.07
2019-05-19T18:53:02.801Z,6.07
2019-05-19T18:55:32.345Z,6.13
2019-05-19T18:58:03.946Z,6.30
2019-05-19T19:00:36.029Z,6.33
2019-05-19T19:03:06.795Z,5.90
2019-05-19T19:05:37.080Z,6.20
2019-05-19T19:08:06.693Z,5.80
2019-05-19T19:10:36.803Z,6.00
2019-05-19T19:13:06.374Z,5.47
2019-05-19T19:15:35.849Z,6.17
2019-05-19T19:18:05.378Z,5.93
2019-05-19T19:20:35.662Z,6.60
2019-05-19T19:23:05.193Z,5.70
2019-05-19T19:25:35.273Z,6.60
2019-05-19T19:28:05.096Z,5.87
2019-05-19T19:30:34.570Z,6.20
2019-05-19T19:33:04.032Z,6.33
2019-05-19T19:35:39.151Z,6.33
2019-05-19T19:38:04.687Z,5.60
2019-05-19T19:40:34.262Z,6.03
2019-05-19T19:43:03.741Z,6.37
2019-05-19T19:45:33.207Z,6.53
2019-05-19T19:48:02.753Z,6.50
2019-05-19T19:50:33.312Z,6.10
2019-05-19T19:53:03.284Z,6.20
2019-05-19T19:55:32.728Z,6.43
2019-05-19T19:58:02.249Z,6.70
2019-05-19T20:00:38.063Z,6.40
2019-05-19T20:03:08.241Z,7.20
2019-05-19T20:05:38.150Z,6.90
2019-05-19T20:08:07.828Z,6.33
2019-05-19T20:10:37.659Z,5.97
2019-05-19T20:13:07.487Z,6.30
2019-05-19T20:15:37.890Z,6.53
2019-05-19T20:18:07.323Z,6.70
2019-05-19T20:20:36.776Z,6.57
2019-05-19T20:23:06.296Z,6.03
2019-05-19T20:25:37.321Z,6.40
2019-05-19T20:28:07.250Z,6.57
2019-05-19T20:30:37.133Z,6.97
2019-05-19T20:33:06.804Z,6.80
2019-05-19T20:35:36.433Z,7.43
2019-05-19T20:38:06.431Z,6.90
2019-05-19T20:40:35.917Z,7.00
2019-05-19T20:43:05.445Z,7.30
2019-05-19T20:45:34.975Z,6.70
2019-05-19T20:48:04.496Z,6.97
2019-05-19T20:50:34.111Z,6.67
2019-05-19T20:53:03.746Z,6.57
2019-05-19T20:55:33.554Z,7.10
2019-05-19T20:58:03.263Z,6.93
2019-05-19T21:00:32.887Z,6.97
2019-05-19T21:03:02.537Z,8.00
2019-05-19T21:05:32.192Z,7.97
2019-05-19T21:08:01.892Z,7.97
2019-05-19T21:10:31.399Z,7.50
2019-05-19T21:13:01.366Z,7.57
2019-05-19T21:15:31.096Z,7.50
2019-05-19T21:18:00.744Z,7.47
2019-05-19T21:20:30.363Z,7.63
2019-05-19T21:23:00.029Z,7.17
2019-05-19T21:25:29.499Z,7.33
2019-05-19T21:27:59.139Z,6.80
2019-05-19T21:30:29.274Z,7.43
2019-05-19T21:32:58.725Z,7.70
2019-05-19T21:35:28.250Z,8.00
2019-05-19T21:37:57.794Z,8.10
2019-05-19T21:40:27.253Z,8.87
2019-05-19T21:42:56.726Z,8.13
2019-05-19T21:45:26.260Z,7.30
2019-05-19T21:47:55.739Z,8.00
2019-05-19T21:50:25.195Z,7.87
2019-05-19T21:52:54.651Z,8.90
2019-05-19T21:55:24.455Z,8.50
2019-05-19T21:57:54.090Z,8.37
2019-05-19T22:00:24.400Z,8.70
2019-05-19T22:02:53.656Z,9.10
2019-05-19T22:05:23.121Z,8.53
2019-05-19T22:08:00.595Z,9.13
2019-05-19T22:10:30.051Z,9.17
2019-05-19T22:12:59.538Z,8.93
2019-05-19T22:15:28.991Z,9.53
2019-05-19T22:17:58.840Z,9.53
2019-05-19T22:20:28.577Z,9.50
2019-05-19T22:22:58.025Z,9.13
2019-05-19T22:25:27.479Z,10.10
2019-05-19T22:27:57.743Z,9.40
2019-05-19T22:30:27.197Z,9.83
2019-05-19T22:32:56.945Z,9.43
2019-05-19T22:35:26.418Z,10.07
2019-05-19T22:37:56.416Z,10.10
2019-05-19T22:40:25.902Z,10.23
2019-05-19T22:42:55.364Z,10.13
2019-05-19T22:45:24.974Z,9.93
2019-05-19T22:47:54.537Z,10.60
2019-05-19T22:50:24.054Z,9.87
2019-05-19T22:52:53.590Z,10.67
2019-05-19T22:55:23.039Z,11.00
2019-05-19T22:57:52.530Z,10.50
2019-05-19T23:00:22.252Z,10.77
2019-05-19T23:02:51.928Z,11.30
2019-05-19T23:05:21.403Z,10.83
2019-05-19T23:07:51.029Z,11.07
2019-05-19T23:10:22.054Z,11.33
2019-05-19T23:12:51.679Z,10.53
2019-05-19T23:15:21.439Z,10.53
2019-05-19T23:17:50.898Z,10.70
2019-05-19T23:20:20.651Z,10.90
2019-05-19T23:22:50.388Z,10.97
2019-05-19T23:25:19.862Z,10.83
2019-05-19T23:27:49.316Z,9.87
2019-05-19T23:30:19.715Z,11.00
2019-05-19T23:32:49.162Z,10.40
2019-05-19T23:35:18.674Z,10.90
2019-05-19T23:37:48.637Z,10.80
2019-05-19T23:40:18.259Z,10.90
2019-05-19T23:42:47.736Z,11.03
2019-05-19T23:45:17.562Z,11.00
2019-05-19T23:47:47.030Z,11.53
2019-05-19T23:50:16.711Z,11.30
2019-05-19T23:52:46.437Z,11.40
2019-05-19T23:55:16.229Z,10.50
2019-05-19T23:57:45.743Z,10.67
